Saint Marys, Kansas
Current Conditions -  °F | °C
As of 9:53 PM on Thursday 27 Nov 2014 (Local Time) from KTOP Reporting Station
Clear Clear  
Wind Chill: 29°   Ceiling: Unl
Heat Index: 34°   Visibility: 10mi
Dew Point: 22°   Wind: 6mph
Humidity: 61%   Direction: 120°ESE
Pressure: 30.27"   Gusts: NA
Location:  39.19°N, 96.07°W
Report Text: KTOP 280353Z AUTO 12005KT 10SM CLR 01/M06 A3027 RMK AO2 SLP257 T00111056
Loading
Personal Weather Stations






























Interactive Weather Map New forecast layout! Learn more

10-Day Weather Forecast

Advertisements
Track Severe Weather on mobile